Time;durP1;ratioP1;P1;durP2;ratioP2;P2;SDS_P1;SDS_P2;PMS_P1;PMS_P2;Temp;Humidity;BMP_temperature;BMP_pressure;BME280_temperature;BME280_humidity;BME280_pressure;Samples;Min_cycle;Max_cycle;Signal;HPM_P1;HPM_P2
2023/07/20 00:01:04;;;;;;;5.57;2.20;;;14.60;99.90;;;;;;5054860;28;20048;-76
2023/07/20 00:03:30;;;;;;;4.97;2.40;;;14.60;99.90;;;;;;5059047;28;20049;-77
2023/07/20 00:05:55;;;;;;;4.43;3.28;;;14.50;99.90;;;;;;5055472;28;20043;-77
2023/07/20 00:08:21;;;;;;;5.53;2.50;;;14.50;99.90;;;;;;5038374;28;20052;-77
2023/07/20 00:10:47;;;;;;;4.47;2.83;;;14.50;99.90;;;;;;5054647;28;20090;-76
2023/07/20 00:13:12;;;;;;;4.80;2.60;;;14.40;99.90;;;;;;5036183;28;20040;-75
2023/07/20 00:15:38;;;;;;;4.57;2.65;;;14.40;99.90;;;;;;5024511;28;20060;-76
2023/07/20 00:18:05;;;;;;;3.50;2.85;;;14.30;99.90;;;;;;5055729;28;20037;-77
2023/07/20 00:20:30;;;;;;;3.83;2.72;;;14.30;99.90;;;;;;5060804;28;20067;-76
2023/07/20 00:22:57;;;;;;;3.90;2.92;;;14.30;99.90;;;;;;5059385;28;20486;-76
2023/07/20 00:25:24;;;;;;;5.40;2.67;;;14.30;99.90;;;;;;5056292;28;20047;-77
2023/07/20 00:27:50;;;;;;;6.93;2.80;;;14.20;99.90;;;;;;5060758;28;20500;-76
2023/07/20 00:30:15;;;;;;;5.63;2.55;;;14.20;99.90;;;;;;5056671;28;20520;-77
2023/07/20 00:32:42;;;;;;;3.47;2.50;;;14.10;99.90;;;;;;5042534;28;20068;-78
2023/07/20 00:35:08;;;;;;;8.38;2.35;;;14.10;99.90;;;;;;5059247;28;20500;-77
2023/07/20 00:37:34;;;;;;;6.32;2.92;;;14.10;99.90;;;;;;5060968;28;20052;-76
2023/07/20 00:40:00;;;;;;;7.13;2.72;;;14.10;99.90;;;;;;5025733;28;20033;-77
2023/07/20 00:42:26;;;;;;;5.20;2.40;;;14.00;99.90;;;;;;5028666;28;20613;-77
2023/07/20 00:44:51;;;;;;;7.70;2.90;;;14.00;99.90;;;;;;5063064;28;20047;-77
2023/07/20 00:47:17;;;;;;;7.10;2.53;;;13.90;99.90;;;;;;5041970;28;20075;-76
2023/07/20 00:49:43;;;;;;;2.92;2.30;;;13.90;99.90;;;;;;5062348;28;20393;-77
2023/07/20 00:52:13;;;;;;;6.70;2.55;;;13.90;99.90;;;;;;5062161;28;20033;-76
2023/07/20 00:54:39;;;;;;;4.25;2.83;;;13.80;99.90;;;;;;5056457;28;21058;-76
2023/07/20 00:57:07;;;;;;;5.05;2.42;;;13.80;99.90;;;;;;5059289;28;20036;-76
2023/07/20 00:59:34;;;;;;;2.90;2.28;;;13.70;99.90;;;;;;5058063;28;20041;-77
2023/07/20 01:01:59;;;;;;;6.63;2.72;;;13.70;99.90;;;;;;5059653;28;20080;-77
2023/07/20 01:04:27;;;;;;;3.50;2.35;;;13.70;99.90;;;;;;5042439;28;20482;-77
2023/07/20 01:07:24;;;;;;;3.28;2.30;;;13.70;99.90;;;;;;5059296;28;20051;-77
2023/07/20 01:10:09;;;;;;;4.78;2.47;;;13.70;99.90;;;;;;5043064;28;20045;-77
2023/07/20 01:12:48;;;;;;;3.60;2.38;;;13.60;99.90;;;;;;5057402;28;20062;-76
2023/07/20 01:15:14;;;;;;;3.95;2.60;;;13.70;99.90;;;;;;5040671;28;20043;-79
2023/07/20 01:17:43;;;;;;;4.78;2.75;;;13.60;99.90;;;;;;5061097;28;20041;-77
2023/07/20 01:20:13;;;;;;;6.38;3.33;;;13.60;99.90;;;;;;5035481;28;20059;-77
2023/07/20 01:22:57;;;;;;;4.05;2.40;;;13.60;99.90;;;;;;5057519;28;20047;-76
2023/07/20 01:25:42;;;;;;;5.47;2.58;;;13.70;99.90;;;;;;5039774;28;20124;-78
2023/07/20 01:28:22;;;;;;;4.50;3.00;;;13.60;99.90;;;;;;5058540;28;20044;-76
2023/07/20 01:31:25;;;;;;;4.20;2.80;;;13.60;99.90;;;;;;5059144;28;20053;-76
2023/07/20 01:33:56;;;;;;;3.05;2.40;;;13.60;99.90;;;;;;5059680;28;20049;-77
2023/07/20 01:36:24;;;;;;;4.75;2.70;;;13.50;99.90;;;;;;5056004;28;20045;-77
2023/07/20 01:38:52;;;;;;;3.05;2.50;;;13.50;99.90;;;;;;5060605;28;20287;-78
2023/07/20 01:41:18;;;;;;;8.82;2.95;;;13.40;99.90;;;;;;5040061;28;20159;-77
2023/07/20 01:43:44;;;;;;;4.32;2.45;;;13.40;99.90;;;;;;5057922;28;20514;-76
2023/07/20 01:46:10;;;;;;;4.18;2.50;;;13.30;99.90;;;;;;5058350;28;20040;-76
2023/07/20 01:48:38;;;;;;;5.70;2.63;;;13.30;99.90;;;;;;5040693;28;20473;-77
2023/07/20 01:51:03;;;;;;;9.55;2.80;;;13.30;99.90;;;;;;5058774;28;20048;-77
2023/07/20 01:53:29;;;;;;;5.70;3.00;;;13.30;99.90;;;;;;5042272;28;20083;-77
2023/07/20 01:55:56;;;;;;;4.15;2.70;;;13.30;99.90;;;;;;5060094;28;20040;-77
2023/07/20 01:58:22;;;;;;;4.15;2.45;;;13.30;99.90;;;;;;5059692;28;20040;-77
2023/07/20 02:00:48;;;;;;;3.97;2.50;;;13.20;99.90;;;;;;5043237;28;20460;-76
2023/07/20 02:03:14;;;;;;;4.65;2.33;;;13.20;99.90;;;;;;5006215;28;20120;-78
2023/07/20 02:05:43;;;;;;;4.57;2.72;;;13.20;99.90;;;;;;5023093;28;20128;-77
2023/07/20 02:08:09;;;;;;;3.50;2.50;;;13.20;99.90;;;;;;5022511;28;20148;-77
2023/07/20 02:10:35;;;;;;;6.00;2.60;;;13.20;99.90;;;;;;5038674;28;20041;-78
2023/07/20 02:13:01;;;;;;;6.78;2.70;;;13.20;99.90;;;;;;5039477;28;20045;-77
2023/07/20 02:15:27;;;;;;;7.18;3.13;;;13.10;99.90;;;;;;5025352;28;20037;-77
2023/07/20 02:17:53;;;;;;;7.40;2.40;;;13.10;99.90;;;;;;5022140;28;20408;-78
2023/07/20 02:20:19;;;;;;;6.28;2.60;;;13.10;99.90;;;;;;5024458;28;20037;-79
2023/07/20 02:22:45;;;;;;;4.40;2.80;;;13.10;99.90;;;;;;5034665;28;20408;-77
2023/07/20 02:25:11;;;;;;;6.65;2.88;;;13.10;99.90;;;;;;5038932;28;20049;-78
2023/07/20 02:27:38;;;;;;;5.30;3.03;;;13.10;99.90;;;;;;5038261;28;20056;-77
2023/07/20 02:30:04;;;;;;;6.15;2.83;;;13.10;99.90;;;;;;5038272;28;20045;-76
2023/07/20 02:32:31;;;;;;;5.85;2.70;;;13.10;99.90;;;;;;5023475;28;20059;-78
2023/07/20 02:34:58;;;;;;;5.45;3.13;;;13.10;99.90;;;;;;5040300;28;20095;-78
2023/07/20 02:37:24;;;;;;;5.22;2.63;;;13.00;99.90;;;;;;5005810;28;20132;-78
2023/07/20 02:39:50;;;;;;;4.63;2.58;;;13.00;99.90;;;;;;5004667;28;20504;-78
2023/07/20 02:42:15;;;;;;;5.75;2.65;;;12.90;99.90;;;;;;5015311;28;20046;-78
2023/07/20 02:44:41;;;;;;;7.68;2.67;;;12.90;99.90;;;;;;5024325;28;20048;-78
2023/07/20 02:47:07;;;;;;;3.47;2.45;;;12.80;99.90;;;;;;5019266;28;20059;-76
2023/07/20 02:49:33;;;;;;;5.00;2.90;;;12.80;99.90;;;;;;5022970;28;20041;-78
2023/07/20 02:51:58;;;;;;;7.28;2.58;;;12.90;99.90;;;;;;5039194;28;20510;-78
2023/07/20 02:54:24;;;;;;;6.35;2.60;;;12.90;99.90;;;;;;5042473;28;20067;-76
2023/07/20 02:56:50;;;;;;;6.60;2.80;;;12.90;99.90;;;;;;5034412;28;20045;-76
2023/07/20 02:59:15;;;;;;;5.30;2.70;;;12.80;99.90;;;;;;5005293;28;20472;-76
2023/07/20 03:01:42;;;;;;;6.18;2.65;;;12.80;99.90;;;;;;5022892;28;20045;-78
2023/07/20 03:04:10;;;;;;;5.25;2.75;;;12.80;99.90;;;;;;5022330;28;20048;-76
2023/07/20 03:06:36;;;;;;;4.93;3.00;;;12.80;99.90;;;;;;5038421;28;20473;-78
2023/07/20 03:09:03;;;;;;;7.70;2.90;;;12.70;99.90;;;;;;5029779;28;20045;-76
2023/07/20 03:11:29;;;;;;;6.03;2.80;;;12.70;99.90;;;;;;5024489;28;20087;-77
2023/07/20 03:13:55;;;;;;;3.75;2.80;;;12.70;99.90;;;;;;5043095;28;20045;-78
2023/07/20 03:16:23;;;;;;;7.38;3.40;;;12.60;99.90;;;;;;5036892;28;20055;-77
2023/07/20 03:18:49;;;;;;;5.63;3.30;;;12.50;99.90;;;;;;5038665;28;20409;-78
2023/07/20 03:21:14;;;;;;;8.27;3.28;;;12.50;99.90;;;;;;5041769;28;20041;-77
2023/07/20 03:23:44;;;;;;;4.05;3.08;;;12.50;99.90;;;;;;5041945;28;20575;-77
2023/07/20 03:26:09;;;;;;;3.85;2.70;;;12.40;99.90;;;;;;5021206;28;21470;-77
2023/07/20 03:28:38;;;;;;;5.75;3.10;;;12.40;99.90;;;;;;5039382;28;20107;-77
2023/07/20 03:31:05;;;;;;;4.65;2.85;;;12.50;99.90;;;;;;5023891;28;20283;-77
2023/07/20 03:33:31;;;;;;;10.98;3.90;;;12.40;99.90;;;;;;5024909;28;20057;-77
2023/07/20 03:35:58;;;;;;;3.28;2.78;;;12.40;99.90;;;;;;5029359;28;20279;-77
2023/07/20 03:38:24;;;;;;;5.65;2.90;;;12.40;99.90;;;;;;5024635;28;20091;-76
2023/07/20 03:40:51;;;;;;;7.45;3.20;;;12.30;99.90;;;;;;5041142;28;20041;-77
2023/07/20 03:43:17;;;;;;;5.85;3.10;;;12.30;99.90;;;;;;5041744;28;20511;-77
2023/07/20 03:45:42;;;;;;;4.00;3.00;;;12.30;99.90;;;;;;5040973;28;20503;-77
2023/07/20 03:48:08;;;;;;;5.47;3.28;;;12.30;99.90;;;;;;5037528;28;20049;-78
2023/07/20 03:50:34;;;;;;;4.85;2.90;;;12.40;99.90;;;;;;5041852;28;20049;-77
2023/07/20 03:52:59;;;;;;;5.20;3.08;;;12.40;99.90;;;;;;5039460;28;20037;-78
2023/07/20 03:55:25;;;;;;;5.00;3.00;;;12.50;99.90;;;;;;5009354;28;20249;-77
2023/07/20 03:57:51;;;;;;;4.72;3.13;;;12.50;99.90;;;;;;5040211;28;20052;-78
2023/07/20 04:00:17;;;;;;;4.25;3.05;;;12.50;99.90;;;;;;5029819;28;20048;-78
2023/07/20 04:02:43;;;;;;;5.95;2.85;;;12.40;99.90;;;;;;5039737;28;20041;-77
2023/07/20 04:05:09;;;;;;;7.15;3.40;;;12.40;99.90;;;;;;5033296;28;20401;-77
2023/07/20 04:07:35;;;;;;;6.45;2.92;;;12.40;99.90;;;;;;5039339;28;20037;-77
2023/07/20 04:10:01;;;;;;;5.88;3.20;;;12.40;99.90;;;;;;5035217;28;20270;-76
2023/07/20 04:12:26;;;;;;;7.25;3.30;;;12.60;99.90;;;;;;5017980;28;20044;-77
2023/07/20 04:14:52;;;;;;;4.35;2.97;;;12.80;99.90;;;;;;5016796;28;20072;-79
2023/07/20 04:17:18;;;;;;;9.98;3.75;;;13.10;99.90;;;;;;5041486;28;20057;-78
2023/07/20 04:19:44;;;;;;;5.78;3.17;;;13.20;99.90;;;;;;5034452;28;20053;-78
2023/07/20 04:22:10;;;;;;;5.72;2.95;;;13.20;99.90;;;;;;5036119;28;20447;-78
2023/07/20 04:24:36;;;;;;;4.45;3.08;;;13.00;99.90;;;;;;5022548;28;20040;-79
2023/07/20 04:27:02;;;;;;;4.43;2.97;;;12.80;99.90;;;;;;5038445;28;20063;-76
2023/07/20 04:29:27;;;;;;;5.20;2.83;;;12.80;99.90;;;;;;5037816;28;20524;-78
2023/07/20 04:31:53;;;;;;;5.57;2.25;;;12.80;99.90;;;;;;5035243;28;20045;-78
2023/07/20 04:34:18;;;;;;;8.23;2.67;;;12.80;99.90;;;;;;5036901;28;20480;-79
2023/07/20 04:36:44;;;;;;;7.07;3.10;;;12.80;99.90;;;;;;5037323;28;20531;-79
2023/07/20 04:39:11;;;;;;;5.55;3.10;;;12.90;99.90;;;;;;5016528;28;20264;-79
2023/07/20 04:41:37;;;;;;;8.35;3.17;;;12.90;99.90;;;;;;5035607;28;20049;-78
2023/07/20 04:44:03;;;;;;;3.50;2.72;;;13.00;99.90;;;;;;5036990;28;20403;-75
2023/07/20 04:46:29;;;;;;;5.72;3.08;;;12.90;99.90;;;;;;5028020;28;20053;-77
2023/07/20 04:48:54;;;;;;;6.00;3.08;;;13.00;99.90;;;;;;5016112;28;20049;-77
2023/07/20 04:51:20;;;;;;;5.55;3.30;;;13.00;99.90;;;;;;5018329;28;20041;-77
2023/07/20 04:53:49;;;;;;;5.63;2.75;;;13.00;99.90;;;;;;5035280;28;20397;-78
2023/07/20 04:56:15;;;;;;;8.93;3.80;;;13.10;99.90;;;;;;5031734;28;20037;-77
2023/07/20 04:58:41;;;;;;;8.52;3.28;;;13.00;99.90;;;;;;5031177;28;20480;-76
2023/07/20 05:01:07;;;;;;;6.63;2.80;;;13.20;99.90;;;;;;5054805;28;20495;-74
2023/07/20 05:03:33;;;;;;;8.32;3.05;;;13.20;99.90;;;;;;5056081;28;20144;-75
2023/07/20 05:05:59;;;;;;;7.55;3.20;;;13.30;99.90;;;;;;5055496;28;20143;-75
2023/07/20 05:08:25;;;;;;;4.50;3.15;;;13.30;99.90;;;;;;5051441;28;20495;-75
2023/07/20 05:10:51;;;;;;;6.78;3.85;;;13.40;99.90;;;;;;5053879;28;20079;-76
2023/07/20 05:13:16;;;;;;;5.60;3.33;;;13.50;99.90;;;;;;5052711;28;20041;-77
2023/07/20 05:15:42;;;;;;;5.28;3.25;;;13.60;99.90;;;;;;5057519;28;20186;-77
2023/07/20 05:18:08;;;;;;;6.60;3.05;;;13.70;99.90;;;;;;5057693;28;20037;-77
2023/07/20 05:20:35;;;;;;;5.90;3.40;;;13.80;99.90;;;;;;5062555;28;20052;-73
2023/07/20 05:23:01;;;;;;;4.85;3.10;;;13.90;99.90;;;;;;5057116;28;20052;-74
2023/07/20 05:25:27;;;;;;;3.92;2.85;;;13.90;99.90;;;;;;5040504;28;20119;-75
2023/07/20 05:27:52;;;;;;;6.85;3.53;;;14.10;99.90;;;;;;5037538;28;20131;-75
2023/07/20 05:30:18;;;;;;;7.50;3.25;;;14.20;99.90;;;;;;5055760;28;20061;-77
2023/07/20 05:32:50;;;;;;;7.93;3.70;;;14.30;99.90;;;;;;5039711;28;20040;-76
2023/07/20 05:35:17;;;;;;;8.55;3.70;;;14.50;99.90;;;;;;5041886;28;20045;-77
2023/07/20 05:37:44;;;;;;;6.72;3.25;;;14.70;99.90;;;;;;5056248;28;20048;-78
2023/07/20 05:40:12;;;;;;;7.95;3.10;;;14.80;99.90;;;;;;5038821;28;20037;-76
2023/07/20 05:42:39;;;;;;;6.55;2.90;;;15.10;99.90;;;;;;5060362;28;20132;-76
2023/07/20 05:45:06;;;;;;;6.80;3.35;;;15.20;99.90;;;;;;5054274;28;20041;-76
2023/07/20 05:47:32;;;;;;;7.03;3.17;;;15.30;99.90;;;;;;5038000;28;20052;-77
2023/07/20 05:49:57;;;;;;;4.38;2.90;;;15.50;99.90;;;;;;5060457;28;20029;-76
2023/07/20 05:52:23;;;;;;;5.13;2.35;;;15.60;99.90;;;;;;5056565;28;20161;-76
2023/07/20 05:54:49;;;;;;;6.13;2.70;;;15.60;99.90;;;;;;5033650;28;20107;-76
2023/07/20 05:57:14;;;;;;;6.68;2.65;;;15.60;99.90;;;;;;5038828;28;20033;-76
2023/07/20 05:59:44;;;;;;;6.28;2.50;;;15.50;99.90;;;;;;5057571;28;20045;-76
2023/07/20 06:02:13;;;;;;;5.38;2.47;;;15.50;99.90;;;;;;5045061;28;20033;-75
2023/07/20 06:04:40;;;;;;;3.78;2.42;;;15.70;99.90;;;;;;5029152;28;20112;-76
2023/07/20 06:07:08;;;;;;;6.63;2.70;;;15.80;99.90;;;;;;5012274;28;20053;-76
2023/07/20 06:09:34;;;;;;;6.22;2.45;;;16.00;99.90;;;;;;5045621;28;20052;-75
2023/07/20 06:12:00;;;;;;;8.73;2.53;;;16.30;99.90;;;;;;5010404;28;20044;-74
2023/07/20 06:14:25;;;;;;;4.47;2.22;;;16.40;99.90;;;;;;5030630;28;20033;-75
2023/07/20 06:16:51;;;;;;;5.68;2.10;;;16.70;99.90;;;;;;5008253;28;20502;-76
2023/07/20 06:19:17;;;;;;;5.25;2.13;;;16.80;99.90;;;;;;5031318;28;20094;-75
2023/07/20 06:21:43;;;;;;;4.72;2.35;;;17.00;99.90;;;;;;5043407;28;20064;-75
2023/07/20 06:24:09;;;;;;;5.63;1.88;;;17.10;99.90;;;;;;5030513;28;20503;-75
2023/07/20 06:26:52;;;;;;;3.33;1.25;;;17.30;99.90;;;;;;5028264;28;20052;-75
2023/07/20 06:29:19;;;;;;;3.90;1.20;;;17.40;99.90;;;;;;5041820;28;20512;-75
2023/07/20 06:31:44;;;;;;;3.28;1.00;;;17.50;99.90;;;;;;5045348;28;20064;-76
2023/07/20 06:34:13;;;;;;;4.50;1.10;;;17.60;99.90;;;;;;5022327;28;20138;-76
2023/07/20 06:36:39;;;;;;;3.33;1.30;;;17.70;99.90;;;;;;5024138;28;20041;-75
2023/07/20 06:39:04;;;;;;;2.92;1.20;;;17.80;99.90;;;;;;5044967;28;20037;-75
2023/07/20 06:41:30;;;;;;;4.95;1.30;;;17.90;99.90;;;;;;5031149;28;20060;-74
2023/07/20 06:43:58;;;;;;;4.18;1.10;;;18.00;99.90;;;;;;5024552;28;20041;-74
2023/07/20 06:46:26;;;;;;;2.63;1.17;;;18.10;99.90;;;;;;5047218;28;20043;-74
2023/07/20 06:48:53;;;;;;;4.47;1.38;;;18.20;99.90;;;;;;5028161;28;20557;-75
2023/07/20 06:51:19;;;;;;;4.88;1.65;;;18.20;99.90;;;;;;5022039;28;20128;-73
2023/07/20 06:53:45;;;;;;;4.70;1.63;;;18.30;99.90;;;;;;5049180;28;20067;-75
2023/07/20 06:56:13;;;;;;;3.83;1.48;;;18.40;99.90;;;;;;5027646;28;20059;-75
2023/07/20 06:58:39;;;;;;;8.02;1.85;;;18.60;99.90;;;;;;5043274;28;20038;-76
2023/07/20 07:01:08;;;;;;;4.93;1.80;;;18.90;99.90;;;;;;5056834;28;20063;-73
2023/07/20 07:03:34;;;;;;;5.75;1.85;;;19.00;99.90;;;;;;5051625;28;20045;-74
2023/07/20 07:06:00;;;;;;;4.50;1.63;;;19.20;99.90;;;;;;5054290;28;20047;-74
2023/07/20 07:08:26;;;;;;;4.53;2.05;;;19.40;99.90;;;;;;5053445;28;20037;-73
2023/07/20 07:10:52;;;;;;;7.72;2.00;;;19.40;99.90;;;;;;5043714;28;20132;-74
2023/07/20 07:13:19;;;;;;;5.00;1.80;;;19.50;99.90;;;;;;5034839;28;20405;-74
2023/07/20 07:15:45;;;;;;;3.58;1.70;;;19.60;99.90;;;;;;5057923;28;20125;-74
2023/07/20 07:18:11;;;;;;;3.97;1.90;;;19.60;99.90;;;;;;5040100;28;20484;-74
2023/07/20 07:20:36;;;;;;;5.22;2.08;;;19.60;99.90;;;;;;5040023;28;20049;-75
2023/07/20 07:23:02;;;;;;;5.88;1.90;;;19.60;99.90;;;;;;5036169;28;20039;-74
2023/07/20 07:25:28;;;;;;;4.00;1.80;;;19.70;99.90;;;;;;5040510;28;20040;-74
2023/07/20 07:27:55;;;;;;;3.75;1.70;;;19.70;99.90;;;;;;5037033;28;20480;-73
2023/07/20 07:30:21;;;;;;;5.30;1.85;;;19.70;99.90;;;;;;5042448;28;20052;-75
2023/07/20 07:32:47;;;;;;;4.85;2.17;;;19.80;99.90;;;;;;5037869;28;20404;-74
2023/07/20 07:35:13;;;;;;;4.40;1.70;;;19.90;99.90;;;;;;5019078;28;20044;-75
2023/07/20 07:37:38;;;;;;;5.30;2.08;;;19.90;99.90;;;;;;5061692;28;20040;-73
2023/07/20 07:40:06;;;;;;;3.55;1.58;;;20.00;99.90;;;;;;5036024;28;20041;-73
2023/07/20 07:42:31;;;;;;;3.42;1.70;;;20.20;99.90;;;;;;5021931;28;20158;-73
2023/07/20 07:44:57;;;;;;;4.32;2.15;;;20.20;99.90;;;;;;5055987;28;20041;-73
2023/07/20 07:47:23;;;;;;;5.07;2.30;;;20.30;99.90;;;;;;5036119;28;20514;-74
2023/07/20 07:49:49;;;;;;;3.15;2.10;;;20.20;99.90;;;;;;5038849;28;20063;-76
2023/07/20 07:52:15;;;;;;;3.83;1.73;;;20.00;99.90;;;;;;5035288;28;20064;-78
2023/07/20 07:54:43;;;;;;;4.57;2.10;;;20.10;99.90;;;;;;5018193;28;20086;-79
2023/07/20 07:57:09;;;;;;;5.10;2.30;;;20.20;99.90;;;;;;5036316;28;20052;-78
2023/07/20 07:59:37;;;;;;;6.15;2.10;;;20.40;99.90;;;;;;5041588;28;20053;-79
2023/07/20 08:02:05;;;;;;;5.22;1.90;;;20.50;99.90;;;;;;5033195;28;20041;-77
2023/07/20 08:04:31;;;;;;;4.15;1.95;;;20.60;99.90;;;;;;5024261;28;20049;-78
2023/07/20 08:06:57;;;;;;;5.88;2.15;;;20.80;99.90;;;;;;5052235;28;21158;-79
2023/07/20 08:09:23;;;;;;;7.70;2.50;;;20.90;99.90;;;;;;5056880;28;20053;-79
2023/07/20 08:11:49;;;;;;;4.13;2.35;;;21.00;99.90;;;;;;5054870;28;20561;-77
2023/07/20 08:14:15;;;;;;;5.70;2.20;;;21.10;99.90;;;;;;5055729;28;20040;-78
2023/07/20 08:16:41;;;;;;;3.70;1.80;;;21.30;99.90;;;;;;5036082;28;20519;-79
2023/07/20 08:19:07;;;;;;;4.38;1.85;;;21.50;99.90;;;;;;5023186;28;20047;-78
2023/07/20 08:21:32;;;;;;;4.57;2.20;;;21.60;99.90;;;;;;5037350;28;20411;-79
2023/07/20 08:23:58;;;;;;;5.75;2.10;;;21.80;99.90;;;;;;5055795;28;20059;-79
2023/07/20 08:26:24;;;;;;;5.43;1.80;;;21.90;99.90;;;;;;5034218;28;20040;-79
2023/07/20 08:28:50;;;;;;;5.68;2.22;;;22.10;99.90;;;;;;5038761;28;20487;-79
2023/07/20 08:31:15;;;;;;;4.32;2.10;;;22.20;99.90;;;;;;5053750;28;20029;-77
2023/07/20 08:33:41;;;;;;;7.82;2.38;;;21.90;99.90;;;;;;5022239;28;20068;-79
2023/07/20 08:36:07;;;;;;;7.10;2.42;;;21.40;99.90;;;;;;5054636;28;20040;-78
2023/07/20 08:38:33;;;;;;;5.88;2.63;;;21.40;99.90;;;;;;5033236;28;20068;-79
2023/07/20 08:40:59;;;;;;;6.20;2.30;;;21.50;99.90;;;;;;5057291;28;20072;-78
2023/07/20 08:43:26;;;;;;;7.03;2.83;;;21.70;99.90;;;;;;5050905;28;20606;-79
2023/07/20 08:45:55;;;;;;;4.70;2.10;;;21.80;99.90;;;;;;5055022;28;20408;-78
2023/07/20 08:48:21;;;;;;;5.40;1.90;;;22.10;99.90;;;;;;5041075;28;20377;-77
2023/07/20 08:50:51;;;;;;;7.10;2.08;;;22.30;99.90;;;;;;5033962;28;20044;-78
2023/07/20 08:53:17;;;;;;;8.25;2.10;;;22.50;99.90;;;;;;5055287;28;20071;-77
2023/07/20 08:55:46;;;;;;;5.32;2.00;;;22.30;99.90;;;;;;5057360;28;20047;-78
2023/07/20 08:58:14;;;;;;;5.88;2.00;;;22.00;99.90;;;;;;5039573;28;20519;-75
2023/07/20 09:00:41;;;;;;;5.13;2.10;;;21.90;99.90;;;;;;5038313;28;20107;-75
2023/07/20 09:03:08;;;;;;;5.40;1.90;;;22.10;99.90;;;;;;5055633;28;20119;-78
2023/07/20 09:05:35;;;;;;;4.70;1.63;;;22.40;99.90;;;;;;5023104;28;20078;-79
2023/07/20 09:08:03;;;;;;;5.80;2.10;;;22.50;99.90;;;;;;5035723;28;20044;-80
2023/07/20 09:10:29;;;;;;;6.45;1.80;;;22.40;99.90;;;;;;5033119;28;20041;-78
2023/07/20 09:12:55;;;;;;;6.65;2.30;;;22.10;99.90;;;;;;5057751;28;20045;-78
2023/07/20 09:15:22;;;;;;;5.47;2.00;;;21.70;99.90;;;;;;5042623;28;20048;-79
2023/07/20 09:17:49;;;;;;;8.23;2.28;;;21.40;99.90;;;;;;5041426;28;20054;-78
2023/07/20 09:20:17;;;;;;;5.32;1.80;;;21.10;99.90;;;;;;5053705;28;20037;-77
2023/07/20 09:22:44;;;;;;;4.80;1.50;;;21.10;99.90;;;;;;5056466;28;20110;-77
2023/07/20 09:25:14;;;;;;;6.90;1.70;;;21.30;99.90;;;;;;5061348;28;20040;-76
2023/07/20 09:27:42;;;;;;;4.95;1.83;;;21.50;99.90;;;;;;5055015;28;20055;-78
2023/07/20 09:30:09;;;;;;;3.83;1.60;;;21.80;99.90;;;;;;5058105;28;20091;-79
2023/07/20 09:32:50;;;;;;;5.57;1.80;;;22.00;99.90;;;;;;5057122;28;21356;-79
2023/07/20 09:35:22;;;;;;;3.60;1.70;;;22.30;99.90;;;;;;5055991;28;20032;-80
2023/07/20 09:38:02;;;;;;;3.05;1.63;;;22.60;99.90;;;;;;5061599;28;20032;-79
2023/07/20 09:40:28;;;;;;;3.97;1.67;;;22.90;99.90;;;;;;5039413;28;20157;-80
2023/07/20 09:43:03;;;;;;;7.13;2.13;;;23.10;99.90;;;;;;5038184;28;20643;-80
2023/07/20 09:45:32;;;;;;;4.00;1.90;;;23.30;99.90;;;;;;5041157;28;20048;-82
2023/07/20 09:48:09;;;;;;;6.78;2.10;;;23.50;99.90;;;;;;5036832;28;20045;-75
2023/07/20 09:50:48;;;;;;;7.60;1.98;;;23.70;99.90;;;;;;5042872;28;20044;-81
2023/07/20 09:53:17;;;;;;;6.03;1.80;;;23.50;99.90;;;;;;5060862;28;20094;-80
2023/07/20 09:55:44;;;;;;;3.72;1.60;;;23.10;99.90;;;;;;5059693;28;20068;-80
2023/07/20 09:58:16;;;;;;;3.97;1.40;;;22.60;99.90;;;;;;5046514;28;20416;-82
2023/07/20 10:00:45;;;;;;;3.53;1.42;;;22.50;99.90;;;;;;5055799;28;20067;-80
2023/07/20 10:03:19;;;;;;;4.90;1.60;;;22.20;99.90;;;;;;5058028;28;20044;-81
2023/07/20 10:05:58;;;;;;;4.43;1.40;;;22.00;99.90;;;;;;5061939;28;20067;-81
2023/07/20 10:08:29;;;;;;;3.50;1.40;;;21.90;99.90;;;;;;5052647;28;20081;-80
2023/07/20 10:11:00;;;;;;;6.93;2.00;;;21.90;99.90;;;;;;5047317;28;20072;-80
2023/07/20 10:13:28;;;;;;;8.00;1.90;;;21.70;99.90;;;;;;5016135;28;20059;-80
2023/07/20 10:16:02;;;;;;;3.83;1.63;;;21.50;99.90;;;;;;5055179;28;20309;-80
2023/07/20 10:18:49;;;;;;;7.47;2.00;;;21.20;99.90;;;;;;5063583;28;20040;-81
2023/07/20 10:21:17;;;;;;;9.60;1.90;;;20.80;99.90;;;;;;5057629;28;20044;-82
2023/07/20 10:23:43;;;;;;;3.72;1.60;;;20.60;99.90;;;;;;5055470;28;20048;-80
2023/07/20 10:26:10;;;;;;;3.13;1.60;;;20.50;99.90;;;;;;5054012;28;20495;-79
2023/07/20 10:28:38;;;;;;;5.18;1.80;;;20.60;99.90;;;;;;5060605;28;20047;-80
2023/07/20 10:31:03;;;;;;;5.47;1.70;;;21.00;99.90;;;;;;5061552;28;20467;-79
2023/07/20 10:33:29;;;;;;;5.35;1.75;;;21.40;99.90;;;;;;5038161;28;20040;-81
2023/07/20 10:35:57;;;;;;;5.50;2.47;;;21.90;99.90;;;;;;5057541;28;20066;-80
2023/07/20 10:38:41;;;;;;;5.95;1.80;;;22.40;99.90;;;;;;5041291;28;20124;-79
2023/07/20 10:41:19;;;;;;;4.63;2.08;;;23.00;99.90;;;;;;5058801;28;20044;-81
2023/07/20 10:43:45;;;;;;;4.80;1.65;;;23.00;99.90;;;;;;5036708;28;20049;-81
2023/07/20 10:46:12;;;;;;;4.53;1.60;;;22.70;99.90;;;;;;5055583;28;20112;-81
2023/07/20 10:49:02;;;;;;;4.05;2.35;;;22.50;99.90;;;;;;5040237;28;20511;-81
2023/07/20 10:51:28;;;;;;;6.95;2.17;;;22.70;99.90;;;;;;5043330;28;20047;-79
2023/07/20 10:53:58;;;;;;;5.70;2.08;;;22.80;99.90;;;;;;5060897;28;20036;-80
2023/07/20 10:56:30;;;;;;;4.07;1.60;;;22.80;99.90;;;;;;5057966;28;20471;-81
2023/07/20 10:59:00;;;;;;;5.85;2.28;;;22.50;99.90;;;;;;5040174;28;20386;-79
2023/07/20 11:01:30;;;;;;;4.30;1.90;;;22.20;99.90;;;;;;5042897;28;20045;-79
2023/07/20 11:04:00;;;;;;;5.47;1.95;;;21.80;99.90;;;;;;5030091;28;20040;-79
2023/07/20 11:06:25;;;;;;;4.40;2.20;;;21.80;99.90;;;;;;5044615;28;20124;-75
2023/07/20 11:09:15;;;;;;;6.18;1.80;;;22.10;99.90;;;;;;5041529;28;20120;-78
2023/07/20 11:11:47;;;;;;;3.67;1.92;;;22.30;99.90;;;;;;5037670;28;20049;-77
2023/07/20 11:14:23;;;;;;;4.53;1.58;;;22.20;99.90;;;;;;5021000;28;20120;-77
2023/07/20 11:16:51;;;;;;;5.45;2.10;;;22.10;99.90;;;;;;5041059;28;20045;-77
2023/07/20 11:19:26;;;;;;;4.65;1.90;;;22.40;99.90;;;;;;5017995;28;20535;-77
2023/07/20 11:21:59;;;;;;;4.95;1.77;;;22.60;99.90;;;;;;5024708;28;20496;-74
2023/07/20 11:24:24;;;;;;;6.57;1.98;;;22.90;99.90;;;;;;5024032;28;20041;-76
2023/07/20 11:26:52;;;;;;;4.45;1.85;;;23.10;99.90;;;;;;5039863;28;20511;-76
2023/07/20 11:29:20;;;;;;;4.75;1.92;;;23.40;99.90;;;;;;5044804;28;20091;-79
2023/07/20 11:31:46;;;;;;;4.55;1.83;;;23.40;99.90;;;;;;5044984;28;20041;-80
2023/07/20 11:34:15;;;;;;;4.15;1.70;;;23.30;99.90;;;;;;5050628;28;20116;-79
2023/07/20 11:36:46;;;;;;;7.35;1.85;;;23.30;99.90;;;;;;5048602;28;20045;-80
2023/07/20 11:39:13;;;;;;;8.95;1.85;;;23.30;99.90;;;;;;5047687;28;20408;-81
2023/07/20 11:41:44;;;;;;;4.03;1.63;;;23.50;99.90;;;;;;5043747;28;20060;-80
2023/07/20 11:44:14;;;;;;;5.65;1.88;;;23.60;99.90;;;;;;5026271;28;20090;-80
2023/07/20 11:46:42;;;;;;;3.65;1.80;;;23.60;99.90;;;;;;5022861;28;20116;-81
2023/07/20 11:49:07;;;;;;;3.70;1.80;;;23.70;99.90;;;;;;5024861;28;20041;-79
2023/07/20 11:51:34;;;;;;;4.25;1.65;;;23.70;99.90;;;;;;5045197;28;20092;-80
2023/07/20 11:54:01;;;;;;;4.15;1.50;;;23.70;99.90;;;;;;5027277;28;20167;-81
2023/07/20 11:56:28;;;;;;;4.25;1.52;;;23.60;99.90;;;;;;5040347;28;20124;-80
2023/07/20 11:59:01;;;;;;;5.53;1.92;;;23.50;99.90;;;;;;5028619;28;20049;-78
2023/07/20 12:01:35;;;;;;;2.80;1.50;;;23.40;99.80;;;;;;5021953;28;20037;-79
2023/07/20 12:04:03;;;;;;;4.25;2.00;;;23.40;99.90;;;;;;5027937;28;20048;-80
2023/07/20 12:06:29;;;;;;;5.88;1.98;;;23.20;99.90;;;;;;5025528;28;20103;-80
2023/07/20 12:08:56;;;;;;;4.20;1.80;;;23.40;99.90;;;;;;5020273;28;20121;-79
2023/07/20 12:11:32;;;;;;;2.95;1.70;;;23.50;99.90;;;;;;5031684;28;20037;-79
2023/07/20 12:13:58;;;;;;;3.58;1.88;;;23.50;99.90;;;;;;5044638;28;20045;-79
2023/07/20 12:16:28;;;;;;;2.92;1.40;;;23.30;99.90;;;;;;5024270;28;20037;-80
2023/07/20 12:19:05;;;;;;;3.95;1.33;;;23.10;99.90;;;;;;5039859;28;20131;-81
2023/07/20 12:21:31;;;;;;;4.47;1.70;;;23.20;99.90;;;;;;5023935;28;20076;-80
2023/07/20 12:23:58;;;;;;;4.15;1.70;;;23.40;99.90;;;;;;5025472;28;20393;-80
2023/07/20 12:26:28;;;;;;;4.53;1.60;;;23.60;99.90;;;;;;5029530;28;20447;-81
2023/07/20 12:28:54;;;;;;;4.05;1.30;;;23.60;99.90;;;;;;5024164;28;20036;-81
2023/07/20 12:31:22;;;;;;;3.03;1.70;;;23.60;99.90;;;;;;5049870;28;20543;-81
2023/07/20 12:33:48;;;;;;;3.30;1.83;;;23.70;99.90;;;;;;5054443;28;20067;-80
2023/07/20 12:36:14;;;;;;;3.58;1.77;;;23.80;99.90;;;;;;5032685;28;20219;-81
2023/07/20 12:38:43;;;;;;;2.95;1.45;;;23.80;99.10;;;;;;5034511;28;20099;-81
2023/07/20 12:41:14;;;;;;;3.08;1.40;;;23.80;99.40;;;;;;5031660;28;20069;-81
2023/07/20 12:43:44;;;;;;;4.03;1.65;;;23.80;99.60;;;;;;5035660;28;20118;-81
2023/07/20 12:46:11;;;;;;;2.35;1.35;;;23.90;99.80;;;;;;5050409;28;20045;-80
2023/07/20 12:48:40;;;;;;;3.00;1.65;;;23.90;99.90;;;;;;5051248;28;20103;-81
2023/07/20 12:51:05;;;;;;;3.60;1.65;;;24.00;99.90;;;;;;5047513;28;20488;-81